createdAt,value
2023-01-13T00:01:23.501Z,100234.25
2023-01-13T00:03:50.603Z,100230.72
2023-01-13T00:06:19.658Z,100224.59
2023-01-13T00:08:49.891Z,100222.84
2023-01-13T00:11:16.516Z,100231.56
2023-01-13T00:13:43.079Z,100223.69
2023-01-13T00:16:18.118Z,100221.94
2023-01-13T00:18:45.193Z,100228.94
2023-01-13T00:21:14.313Z,100221.91
2023-01-13T00:23:40.885Z,100234.16
2023-01-13T00:26:10.357Z,100227.16
2023-01-13T00:28:37.200Z,100231.53
2023-01-13T00:31:10.963Z,100219.28
2023-01-13T00:33:37.859Z,100217.53
2023-01-13T00:36:06.209Z,100208.78
2023-01-13T00:38:34.520Z,100195.66
2023-01-13T00:41:08.748Z,100211.41
2023-01-13T00:43:36.402Z,100210.56
2023-01-13T00:46:04.482Z,100193.06
2023-01-13T00:48:32.430Z,100199.16
2023-01-13T00:51:05.555Z,100190.41
2023-01-13T00:53:41.071Z,100173.78
2023-01-13T00:56:18.060Z,100187.78
2023-01-13T00:58:46.035Z,100186.91
2023-01-13T01:01:16.381Z,100188.63
2023-01-13T01:03:43.119Z,100197.38
2023-01-13T01:06:13.408Z,100189.50
2023-01-13T01:08:40.346Z,100185.13
2023-01-13T01:11:09.156Z,100170.28
2023-01-13T01:13:36.456Z,100173.75
2023-01-13T01:16:13.952Z,100178.97
2023-01-13T01:18:43.140Z,100171.97
2023-01-13T01:21:10.465Z,100161.50
2023-01-13T01:23:38.466Z,100165.88
2023-01-13T01:26:11.669Z,100193.81
2023-01-13T01:28:38.549Z,100192.06
2023-01-13T01:31:17.887Z,100199.09
2023-01-13T01:33:46.352Z,100202.56
2023-01-13T01:36:14.205Z,100206.94
2023-01-13T01:38:40.825Z,100208.66
2023-01-13T01:41:07.480Z,100213.06
2023-01-13T01:44:00.510Z,100185.09
2023-01-13T01:46:35.379Z,100198.19
2023-01-13T01:49:14.062Z,100192.06
2023-01-13T01:52:14.624Z,100185.06
2023-01-13T01:54:48.210Z,100179.84
2023-01-13T01:57:24.437Z,100180.69
2023-01-13T01:59:51.074Z,100192.91
2023-01-13T02:02:17.997Z,100180.72
2023-01-13T02:04:50.940Z,100180.69
2023-01-13T02:07:26.249Z,100182.44
2023-01-13T02:09:55.176Z,100187.66
2023-01-13T02:12:31.939Z,100189.38
2023-01-13T02:15:12.411Z,100181.53
2023-01-13T02:18:17.787Z,100192.00
2023-01-13T02:20:56.219Z,100178.00
2023-01-13T02:23:40.966Z,100177.09
2023-01-13T02:26:10.006Z,100176.25
2023-01-13T02:29:43.532Z,100159.69
2023-01-13T02:32:33.474Z,100147.47
2023-01-13T02:35:18.223Z,100135.22
2023-01-13T02:37:46.025Z,100143.97
2023-01-13T02:40:21.435Z,100144.84
2023-01-13T02:43:51.833Z,100150.09
2023-01-13T02:46:29.822Z,100140.50
2023-01-13T02:48:59.861Z,100128.28
2023-01-13T02:51:32.339Z,100133.53
2023-01-13T02:54:02.072Z,100129.16
2023-01-13T02:56:30.224Z,100137.03
2023-01-13T02:58:58.642Z,100131.75
2023-01-13T03:01:25.240Z,100147.50
2023-01-13T03:03:51.735Z,100136.16
2023-01-13T03:07:01.898Z,100148.38
2023-01-13T03:09:43.560Z,100137.88
2023-01-13T03:12:26.677Z,100140.53
2023-01-13T03:15:19.019Z,100137.03
2023-01-13T03:18:05.920Z,100154.47
2023-01-13T03:20:41.198Z,100153.59
2023-01-13T03:23:17.911Z,100151.88
2023-01-13T03:25:57.179Z,100141.38
2023-01-13T03:28:31.080Z,100158.00
2023-01-13T03:31:04.747Z,100150.09
2023-01-13T03:33:37.326Z,100158.84
2023-01-13T03:36:07.973Z,100148.38
2023-01-13T03:38:39.195Z,100138.75
2023-01-13T03:41:10.505Z,100135.28
2023-01-13T03:44:00.164Z,100135.28
2023-01-13T03:46:42.349Z,100131.75
2023-01-13T03:49:13.168Z,100130.88
2023-01-13T03:51:43.885Z,100140.50
2023-01-13T03:54:12.668Z,100143.97
2023-01-13T03:56:47.384Z,100148.34
2023-01-13T03:59:22.508Z,100147.47
2023-01-13T04:01:57.160Z,100139.63
2023-01-13T04:04:28.970Z,100148.34
2023-01-13T04:07:05.286Z,100143.09
2023-01-13T04:09:34.453Z,100140.50
2023-01-13T04:12:11.212Z,100145.72
2023-01-13T04:14:37.910Z,100155.28
2023-01-13T04:17:05.127Z,100143.97
2023-01-13T04:19:32.982Z,100144.81
2023-01-13T04:21:59.607Z,100143.06
2023-01-13T04:24:26.255Z,100126.47
2023-01-13T04:26:52.670Z,100148.34
2023-01-13T04:29:19.120Z,100139.59
2023-01-13T04:31:45.506Z,100139.59
2023-01-13T04:34:12.039Z,100131.72
2023-01-13T04:36:38.634Z,100136.06
2023-01-13T04:39:05.155Z,100122.94
2023-01-13T04:41:54.353Z,100142.16
2023-01-13T04:44:20.678Z,100146.50
2023-01-13T04:46:47.302Z,100137.75
2023-01-13T04:49:13.899Z,100177.91
2023-01-13T04:51:40.275Z,100151.72
2023-01-13T04:54:09.445Z,100137.75
2023-01-13T04:56:35.832Z,100141.25
2023-01-13T04:59:02.247Z,100142.09
2023-01-13T05:01:28.682Z,100144.72
2023-01-13T05:03:55.104Z,100133.38
2023-01-13T05:06:23.942Z,100134.22
2023-01-13T05:08:53.402Z,100129.88
2023-01-13T05:11:38.515Z,100129.00
2023-01-13T05:14:23.247Z,100135.09
2023-01-13T05:17:04.528Z,100137.72
2023-01-13T05:19:41.774Z,100135.97
2023-01-13T05:22:26.453Z,100148.22
2023-01-13T05:25:11.267Z,100143.84
2023-01-13T05:27:37.813Z,100142.97
2023-01-13T05:30:05.393Z,100121.97
2023-01-13T05:32:33.415Z,100126.38
2023-01-13T05:34:59.800Z,100144.69
2023-01-13T05:37:27.632Z,100135.13
2023-01-13T05:40:12.922Z,100142.97
2023-01-13T05:42:57.785Z,100142.09
2023-01-13T05:45:24.464Z,100129.00
2023-01-13T05:47:50.838Z,100143.88
2023-01-13T05:50:17.542Z,100142.13
2023-01-13T05:52:44.480Z,100138.69
2023-01-13T05:55:11.740Z,100148.28
2023-01-13T05:57:38.254Z,100152.63
2023-01-13T06:00:05.728Z,100146.53
2023-01-13T06:02:32.339Z,100142.16
2023-01-13T06:04:58.808Z,100153.53
2023-01-13T06:07:25.249Z,100143.06
2023-01-13T06:09:51.708Z,100136.13
2023-01-13T06:12:19.395Z,100144.84
2023-01-13T06:14:45.835Z,100130.84
2023-01-13T06:17:14.327Z,100147.47
2023-01-13T06:19:41.434Z,100144.84
2023-01-13T06:22:22.955Z,100146.59
2023-01-13T06:24:50.697Z,100160.56
2023-01-13T06:27:18.407Z,100149.19
2023-01-13T06:29:44.857Z,100153.56
2023-01-13T06:32:18.759Z,100157.94
2023-01-13T06:34:49.580Z,100151.84
2023-01-13T06:37:19.818Z,100151.81
2023-01-13T06:39:46.426Z,100165.81
2023-01-13T06:42:31.580Z,100155.31
2023-01-13T06:44:58.086Z,100166.66
2023-01-13T06:47:24.545Z,100166.72
2023-01-13T06:49:51.128Z,100157.97
2023-01-13T06:52:17.493Z,100160.63
2023-01-13T06:54:46.770Z,100151.88
2023-01-13T06:57:13.428Z,100153.66
2023-01-13T06:59:39.871Z,100157.13
2023-01-13T07:02:08.963Z,100146.66
2023-01-13T07:04:35.402Z,100167.59
2023-01-13T07:07:01.900Z,100174.63
2023-01-13T07:09:28.371Z,100167.63
2023-01-13T07:11:54.915Z,100174.63
2023-01-13T07:14:40.042Z,100170.28
2023-01-13T07:17:06.504Z,100170.25
2023-01-13T07:19:32.993Z,100179.88
2023-01-13T07:22:02.450Z,100185.97
2023-01-13T07:24:28.950Z,100179.88
2023-01-13T07:26:55.461Z,100180.75
2023-01-13T07:29:21.855Z,100181.63
2023-01-13T07:31:50.106Z,100193.84
2023-01-13T07:34:16.812Z,100181.63
2023-01-13T07:36:43.187Z,100202.59
2023-01-13T07:39:09.693Z,100202.59
2023-01-13T07:41:54.765Z,100192.97
2023-01-13T07:44:21.369Z,100198.22
2023-01-13T07:46:48.002Z,100216.53
2023-01-13T07:49:14.450Z,100207.81
2023-01-13T07:51:40.932Z,100210.38
2023-01-13T07:54:07.360Z,100216.53
2023-01-13T07:56:33.929Z,100212.09
2023-01-13T07:59:00.843Z,100217.34
2023-01-13T08:01:28.032Z,100212.09
2023-01-13T08:03:56.213Z,100217.31
2023-01-13T08:06:22.715Z,100212.94
2023-01-13T08:08:49.134Z,100219.06
2023-01-13T08:11:15.631Z,100222.53
2023-01-13T08:13:42.072Z,100226.00
2023-01-13T08:16:11.866Z,100218.16
2023-01-13T08:18:38.617Z,100221.63
2023-01-13T08:21:08.343Z,100228.59
2023-01-13T08:23:35.590Z,100233.84
2023-01-13T08:26:06.700Z,100240.81
2023-01-13T08:28:33.138Z,100240.81
2023-01-13T08:31:01.749Z,100239.03
2023-01-13T08:33:28.961Z,100235.53
2023-01-13T08:35:56.169Z,100246.88
2023-01-13T08:38:23.429Z,100255.59
2023-01-13T08:40:50.477Z,100245.09
2023-01-13T08:43:17.021Z,100258.22
2023-01-13T08:45:43.479Z,100256.44
2023-01-13T08:48:10.200Z,100249.47
2023-01-13T08:50:36.689Z,100245.09
2023-01-13T08:53:03.443Z,100249.47
2023-01-13T08:55:29.909Z,100262.53
2023-01-13T08:58:14.160Z,100269.53
2023-01-13T09:00:42.190Z,100265.22
2023-01-13T09:03:08.650Z,100275.69
2023-01-13T09:05:35.990Z,100274.84
2023-01-13T09:08:02.433Z,100289.69
2023-01-13T09:10:28.802Z,100282.69
2023-01-13T09:13:13.628Z,100280.09
2023-01-13T09:15:42.529Z,100301.97
2023-01-13T09:18:09.553Z,100301.06
2023-01-13T09:20:36.045Z,100289.72
2023-01-13T09:23:02.977Z,100295.88
2023-01-13T09:25:29.443Z,100299.34
2023-01-13T09:27:56.725Z,100297.59
2023-01-13T09:30:23.448Z,100294.09
2023-01-13T09:32:49.877Z,100287.16
2023-01-13T09:35:18.857Z,100307.25
2023-01-13T09:37:45.289Z,100292.41
2023-01-13T09:40:22.843Z,100300.25
2023-01-13T09:43:13.324Z,100306.38
2023-01-13T09:45:56.166Z,100314.25
2023-01-13T09:48:51.738Z,100301.16
2023-01-13T09:51:28.001Z,100321.25
2023-01-13T09:53:59.341Z,100316.03
2023-01-13T09:56:26.338Z,100320.38
2023-01-13T09:58:52.795Z,100318.66
2023-01-13T10:01:33.548Z,100325.69
2023-01-13T10:04:04.772Z,100328.31
2023-01-13T10:06:39.382Z,100344.91
2023-01-13T10:09:06.140Z,100349.28
2023-01-13T10:11:58.716Z,100346.66
2023-01-13T10:14:24.983Z,100356.25
2023-01-13T10:17:04.226Z,100348.41
2023-01-13T10:19:59.828Z,100356.31
2023-01-13T10:23:07.494Z,100358.03
2023-01-13T10:26:15.365Z,100369.41
2023-01-13T10:28:41.764Z,100359.78
2023-01-13T10:31:14.741Z,100372.03
2023-01-13T10:33:41.207Z,100371.19
2023-01-13T10:36:16.793Z,100372.09
2023-01-13T10:38:48.426Z,100368.63
2023-01-13T10:41:15.014Z,100377.34
2023-01-13T10:43:45.438Z,100377.34
2023-01-13T10:46:19.460Z,100373.00
2023-01-13T10:48:58.781Z,100384.38
2023-01-13T10:51:29.780Z,100387.03
2023-01-13T10:54:20.246Z,100389.72
2023-01-13T10:56:46.910Z,100387.97
2023-01-13T10:59:24.630Z,100391.47
2023-01-13T11:02:25.396Z,100391.50
2023-01-13T11:04:55.377Z,100394.13
2023-01-13T11:07:35.824Z,100398.50
2023-01-13T11:10:23.021Z,100394.13
2023-01-13T11:12:58.275Z,100395.91
2023-01-13T11:15:38.461Z,100415.16
2023-01-13T11:18:23.041Z,100406.41
2023-01-13T11:20:51.628Z,100411.69
2023-01-13T11:23:28.389Z,100404.69
2023-01-13T11:26:01.293Z,100423.06
2023-01-13T11:28:56.036Z,100416.97
2023-01-13T11:31:34.778Z,100414.34
2023-01-13T11:34:18.153Z,100427.44
2023-01-13T11:36:50.987Z,100421.34
2023-01-13T11:39:59.014Z,100423.97
2023-01-13T11:42:40.366Z,100441.47
2023-01-13T11:45:31.368Z,100441.47
2023-01-13T11:48:01.611Z,100460.69
2023-01-13T11:50:42.248Z,100450.19
2023-01-13T11:53:22.481Z,100451.97
2023-01-13T11:56:24.173Z,100451.97
2023-01-13T11:58:58.093Z,100452.84
2023-01-13T12:01:37.280Z,100456.38
2023-01-13T12:04:25.272Z,100449.34
2023-01-13T12:07:16.651Z,100463.31
2023-01-13T12:10:13.195Z,100469.47
2023-01-13T12:12:58.303Z,100461.59
2023-01-13T12:15:36.586Z,100480.81
2023-01-13T12:18:15.051Z,100477.34
2023-01-13T12:21:00.011Z,100478.22
2023-01-13T12:23:35.082Z,100477.38
2023-01-13T12:26:07.883Z,100489.59
2023-01-13T12:29:04.776Z,100494.00
2023-01-13T12:31:36.631Z,100490.50
2023-01-13T12:34:22.278Z,100494.88
2023-01-13T12:37:17.277Z,100500.16
2023-01-13T12:40:05.396Z,100496.69
2023-01-13T12:43:09.207Z,100488.84
2023-01-13T12:45:35.734Z,100503.72
2023-01-13T12:48:02.214Z,100506.34
2023-01-13T12:50:29.099Z,100506.38
2023-01-13T12:52:57.672Z,100517.78
2023-01-13T12:55:25.940Z,100516.91
2023-01-13T12:58:02.454Z,100520.41
2023-01-13T13:00:52.978Z,100531.78
2023-01-13T13:03:28.052Z,100536.16
2023-01-13T13:06:06.111Z,100536.09
2023-01-13T13:09:10.549Z,100539.63
2023-01-13T13:11:59.191Z,100557.97
2023-01-13T13:14:37.723Z,100547.50
2023-01-13T13:17:25.286Z,100558.88
2023-01-13T13:19:52.371Z,100572.88
2023-01-13T13:22:50.487Z,100569.41
2023-01-13T13:25:22.505Z,100579.03
2023-01-13T13:28:15.719Z,100580.78
2023-01-13T13:30:52.261Z,100576.44
2023-01-13T13:33:43.018Z,100577.31
2023-01-13T13:36:09.423Z,100580.78
2023-01-13T13:39:29.297Z,100591.28
2023-01-13T13:42:23.102Z,100581.63
2023-01-13T13:45:09.437Z,100596.53
2023-01-13T13:47:39.444Z,100586.03
2023-01-13T13:50:16.080Z,100598.25
2023-01-13T13:53:18.307Z,100601.75
2023-01-13T13:56:02.038Z,100610.56
2023-01-13T13:58:31.341Z,100618.47
2023-01-13T14:00:58.445Z,100629.81
2023-01-13T14:03:28.852Z,100629.81
2023-01-13T14:06:01.358Z,100646.41
2023-01-13T14:08:29.898Z,100641.16
2023-01-13T14:10:56.598Z,100647.28
2023-01-13T14:13:27.533Z,100653.44
2023-01-13T14:15:59.619Z,100654.34
2023-01-13T14:18:27.107Z,100667.53
2023-01-13T14:20:55.067Z,100665.72
2023-01-13T14:23:28.259Z,100677.09
2023-01-13T14:25:55.885Z,100677.06
2023-01-13T14:28:33.902Z,100680.53
2023-01-13T14:31:01.301Z,100686.63
2023-01-13T14:33:41.080Z,100693.59
2023-01-13T14:36:13.716Z,100718.94
2023-01-13T14:38:40.760Z,100715.44
2023-01-13T14:41:28.348Z,100711.84
2023-01-13T14:43:59.191Z,100711.84
2023-01-13T14:46:39.573Z,100714.41
2023-01-13T14:49:32.130Z,100731.00
2023-01-13T14:52:13.805Z,100710.03
2023-01-13T14:55:10.097Z,100724.91
2023-01-13T14:57:41.586Z,100734.50
2023-01-13T15:00:20.575Z,100748.53
2023-01-13T15:02:47.158Z,100746.75
2023-01-13T15:05:19.741Z,100755.50
2023-01-13T15:08:05.170Z,100752.00
2023-01-13T15:10:41.585Z,100749.34
2023-01-13T15:13:24.206Z,100747.59
2023-01-13T15:15:55.785Z,100762.50
2023-01-13T15:18:22.465Z,100770.38
2023-01-13T15:20:50.782Z,100768.66
2023-01-13T15:23:18.582Z,100780.03
2023-01-13T15:25:46.017Z,100800.16
2023-01-13T15:28:21.508Z,100801.88
2023-01-13T15:30:51.535Z,100796.59
2023-01-13T15:33:18.459Z,100789.56
2023-01-13T15:35:50.196Z,100808.81
2023-01-13T15:38:20.064Z,100812.25
2023-01-13T15:40:47.808Z,100810.47
2023-01-13T15:43:35.264Z,100812.13
2023-01-13T15:46:22.493Z,100811.19
2023-01-13T15:48:51.212Z,100840.03
2023-01-13T15:51:21.223Z,100827.72
2023-01-13T15:53:47.674Z,100840.81
2023-01-13T15:56:39.073Z,100838.19
2023-01-13T15:59:16.408Z,100857.44
2023-01-13T16:01:43.040Z,100849.59
2023-01-13T16:04:09.827Z,100856.56
2023-01-13T16:06:38.167Z,100855.69
2023-01-13T16:09:05.453Z,100863.63
2023-01-13T16:11:32.063Z,100866.19
2023-01-13T16:13:59.049Z,100873.19
2023-01-13T16:16:27.853Z,100889.78
2023-01-13T16:18:54.977Z,100880.19
2023-01-13T16:21:24.494Z,100896.78
2023-01-13T16:23:51.699Z,100907.28
2023-01-13T16:26:25.003Z,100902.03
2023-01-13T16:28:53.742Z,100909.00
2023-01-13T16:31:31.613Z,100911.63
2023-01-13T16:34:02.200Z,100916.88
2023-01-13T16:36:30.476Z,100922.97
2023-01-13T16:38:57.428Z,100922.09
2023-01-13T16:41:24.981Z,100942.22
2023-01-13T16:43:51.838Z,100930.84
2023-01-13T16:46:19.835Z,100936.06
2023-01-13T16:48:46.942Z,100943.88
2023-01-13T16:51:13.448Z,100937.72
2023-01-13T16:53:40.170Z,100942.94
2023-01-13T16:56:26.963Z,100942.00
2023-01-13T16:58:56.194Z,100940.13
2023-01-13T17:01:29.075Z,100948.81
2023-01-13T17:03:57.024Z,100953.13
2023-01-13T17:06:41.545Z,100958.28
2023-01-13T17:09:15.474Z,100955.66
2023-01-13T17:11:41.803Z,100957.41
2023-01-13T17:14:19.355Z,100969.59
2023-01-13T17:16:46.373Z,100964.34
2023-01-13T17:19:13.744Z,100965.22
2023-01-13T17:21:40.513Z,100966.06
2023-01-13T17:24:08.011Z,100983.56
2023-01-13T17:26:44.100Z,100982.66
2023-01-13T17:29:16.285Z,100982.66
2023-01-13T17:31:42.667Z,100989.59
2023-01-13T17:34:11.316Z,100985.19
2023-01-13T17:36:37.793Z,100990.34
2023-01-13T17:39:04.344Z,100987.59
2023-01-13T17:41:30.959Z,100996.41
2023-01-13T17:43:57.346Z,100989.38
2023-01-13T17:46:24.101Z,100997.25
2023-01-13T17:48:52.737Z,101000.69
2023-01-13T17:51:20.283Z,101004.97
2023-01-13T17:53:46.766Z,101001.47
2023-01-13T17:56:15.221Z,101004.97
2023-01-13T17:58:41.939Z,101007.59
2023-01-13T18:01:15.291Z,101010.28
2023-01-13T18:03:41.824Z,101015.59
2023-01-13T18:06:14.788Z,101021.69
2023-01-13T18:08:41.245Z,101015.63
2023-01-13T18:11:07.848Z,101022.63
2023-01-13T18:13:35.256Z,101021.78
2023-01-13T18:16:13.314Z,101020.00
2023-01-13T18:18:41.721Z,101017.38
2023-01-13T18:21:35.975Z,101028.78
2023-01-13T18:24:21.122Z,101035.72
2023-01-13T18:27:05.974Z,101031.31
2023-01-13T18:29:32.432Z,101033.88
2023-01-13T18:31:58.872Z,101035.59
2023-01-13T18:34:25.307Z,101042.63
2023-01-13T18:36:51.747Z,101056.56
2023-01-13T18:39:18.377Z,101066.16
2023-01-13T18:42:03.000Z,101054.75
2023-01-13T18:44:29.373Z,101055.72
2023-01-13T18:46:55.855Z,101070.56
2023-01-13T18:49:22.463Z,101077.50
2023-01-13T18:51:48.976Z,101076.72
2023-01-13T18:54:15.482Z,101066.28
2023-01-13T18:56:42.073Z,101069.78
2023-01-13T18:59:08.489Z,101079.44
2023-01-13T19:01:36.929Z,101091.72
2023-01-13T19:04:10.081Z,101073.44
2023-01-13T19:06:39.611Z,101096.13
2023-01-13T19:09:10.965Z,101090.06
2023-01-13T19:11:37.739Z,101097.88
2023-01-13T19:14:04.237Z,101103.13
2023-01-13T19:16:30.610Z,101103.13
2023-01-13T19:18:57.023Z,101101.41
2023-01-13T19:21:24.779Z,101108.47
2023-01-13T19:23:56.216Z,101102.34
2023-01-13T19:26:22.865Z,101104.91
2023-01-13T19:28:50.363Z,101109.38
2023-01-13T19:31:17.169Z,101111.91
2023-01-13T19:33:43.682Z,101129.53
2023-01-13T19:36:11.417Z,101127.78
2023-01-13T19:38:38.211Z,101118.94
2023-01-13T19:41:11.683Z,101124.25
2023-01-13T19:43:56.796Z,101126.00
2023-01-13T19:46:26.107Z,101135.66
2023-01-13T19:48:55.217Z,101133.84
2023-01-13T19:51:21.704Z,101140.84
2023-01-13T19:53:48.210Z,101144.28
2023-01-13T19:56:15.248Z,101152.97
2023-01-13T19:58:42.136Z,101158.22
2023-01-13T20:01:10.118Z,101155.50
2023-01-13T20:03:37.721Z,101158.09
2023-01-13T20:06:08.781Z,101158.00
2023-01-13T20:08:35.218Z,101183.28
2023-01-13T20:11:21.404Z,101184.16
2023-01-13T20:13:49.575Z,101172.69
2023-01-13T20:16:16.067Z,101171.84
2023-01-13T20:18:42.495Z,101173.53
2023-01-13T20:21:09.341Z,101173.41
2023-01-13T20:23:35.985Z,101178.59
2023-01-13T20:26:02.555Z,101188.16
2023-01-13T20:28:29.145Z,101181.06
2023-01-13T20:30:58.206Z,101176.63
2023-01-13T20:33:24.640Z,101201.91
2023-01-13T20:35:59.467Z,101202.72
2023-01-13T20:38:25.922Z,101208.81
2023-01-13T20:41:21.748Z,101218.44
2023-01-13T20:43:57.021Z,101218.47
2023-01-13T20:46:28.030Z,101226.34
2023-01-13T20:48:55.027Z,101231.53
2023-01-13T20:51:23.815Z,101227.16
2023-01-13T20:53:50.257Z,101228.84
2023-01-13T20:56:17.781Z,101226.19
2023-01-13T20:58:44.162Z,101235.78
2023-01-13T21:01:10.730Z,101252.34
2023-01-13T21:03:37.167Z,101245.38
2023-01-13T21:06:03.761Z,101248.00
2023-01-13T21:08:30.221Z,101253.19
2023-01-13T21:11:05.972Z,101254.06
2023-01-13T21:13:50.899Z,101254.03
2023-01-13T21:16:17.416Z,101254.97
2023-01-13T21:19:02.266Z,101251.41
2023-01-13T21:21:28.789Z,101257.59
2023-01-13T21:23:55.405Z,101264.53
2023-01-13T21:26:22.167Z,101255.84
2023-01-13T21:28:50.099Z,101257.59
2023-01-13T21:31:17.745Z,101264.66
2023-01-13T21:33:44.891Z,101255.97
2023-01-13T21:36:15.543Z,101270.88
2023-01-13T21:38:42.290Z,101270.03
2023-01-13T21:41:09.538Z,101270.13
2023-01-13T21:43:56.244Z,101271.94
2023-01-13T21:46:42.741Z,101279.91
2023-01-13T21:49:09.574Z,101279.09
2023-01-13T21:51:36.557Z,101284.31
2023-01-13T21:54:02.974Z,101283.47
2023-01-13T21:56:29.317Z,101292.22
2023-01-13T21:58:58.672Z,101291.38
2023-01-13T22:01:25.257Z,101287.88
2023-01-13T22:04:10.314Z,101302.72
2023-01-13T22:06:36.785Z,101296.63
2023-01-13T22:09:03.338Z,101306.28
2023-01-13T22:11:30.051Z,101307.97
2023-01-13T22:14:06.490Z,101317.56
2023-01-13T22:16:39.173Z,101315.81
2023-01-13T22:19:07.407Z,101308.75
2023-01-13T22:21:34.388Z,101313.19
2023-01-13T22:24:01.555Z,101324.53
2023-01-13T22:26:28.087Z,101322.00
2023-01-13T22:28:55.236Z,101325.44
2023-01-13T22:31:23.848Z,101328.06
2023-01-13T22:33:56.399Z,101310.53
2023-01-13T22:36:26.244Z,101319.31
2023-01-13T22:38:54.773Z,101326.38
2023-01-13T22:41:21.198Z,101322.91
2023-01-13T22:43:47.620Z,101330.78
2023-01-13T22:46:14.624Z,101318.50
2023-01-13T22:48:41.280Z,101328.97
2023-01-13T22:51:09.086Z,101322.91
2023-01-13T22:53:36.608Z,101328.09
2023-01-13T22:56:04.415Z,101339.53
2023-01-13T22:58:31.068Z,101337.00
2023-01-13T23:01:08.115Z,101334.41
2023-01-13T23:03:34.513Z,101336.16
2023-01-13T23:06:01.700Z,101341.44
2023-01-13T23:08:28.162Z,101338.81
2023-01-13T23:11:04.139Z,101345.88
2023-01-13T23:13:31.035Z,101352.00
2023-01-13T23:16:03.214Z,101345.06
2023-01-13T23:18:29.652Z,101339.81
2023-01-13T23:20:56.141Z,101329.28
2023-01-13T23:23:24.886Z,101334.56
2023-01-13T23:25:53.559Z,101319.72
2023-01-13T23:28:21.070Z,101315.38
2023-01-13T23:30:47.976Z,101315.31
2023-01-13T23:33:14.738Z,101319.72
2023-01-13T23:35:41.258Z,101317.09
2023-01-13T23:38:07.686Z,101322.41
2023-01-13T23:40:34.987Z,101317.16
2023-01-13T23:43:01.465Z,101316.28
2023-01-13T23:45:27.859Z,101318.91
2023-01-13T23:47:55.816Z,101314.53
2023-01-13T23:50:22.378Z,101318.09
2023-01-13T23:52:48.791Z,101327.75
2023-01-13T23:55:15.247Z,101330.38
2023-01-13T23:57:44.522Z,101341.72
